createdAt,value
2022-09-28T00:03:31.042Z,98785.91
2022-09-28T00:08:37.211Z,98777.92
2022-09-28T00:13:44.000Z,98780.45
2022-09-28T00:18:51.322Z,98779.91
2022-09-28T00:24:21.973Z,98773.81
2022-09-28T00:29:32.338Z,98762.98
2022-09-28T00:34:46.644Z,98760.13
2022-09-28T00:39:53.053Z,98763.44
2022-09-28T00:44:59.305Z,98771.31
2022-09-28T00:50:11.634Z,98770.54
2022-09-28T00:55:21.889Z,98767.80
2022-09-28T01:00:27.819Z,98775.02
2022-09-28T01:05:35.266Z,98781.59
2022-09-28T01:10:44.086Z,98783.32
2022-09-28T01:15:59.373Z,98781.27
2022-09-28T01:21:10.389Z,98778.09
2022-09-28T01:26:50.853Z,98774.59
2022-09-28T01:32:03.514Z,98778.17
2022-09-28T01:37:13.541Z,98771.46
2022-09-28T01:42:23.487Z,98772.63
2022-09-28T01:47:36.458Z,98775.60
2022-09-28T01:52:48.243Z,98782.85
2022-09-28T01:57:59.987Z,98787.00
2022-09-28T02:03:12.597Z,98784.42
2022-09-28T02:08:28.545Z,98779.56
2022-09-28T02:13:37.536Z,98770.23
2022-09-28T02:18:45.134Z,98768.84
2022-09-28T02:24:00.886Z,98770.89
2022-09-28T02:29:06.843Z,98781.00
2022-09-28T02:34:12.707Z,98792.27
2022-09-28T02:39:19.509Z,98786.58
2022-09-28T02:44:57.693Z,98788.53
2022-09-28T02:50:13.815Z,98786.89
2022-09-28T02:55:29.935Z,98782.66
2022-09-28T03:00:44.766Z,98776.99
2022-09-28T03:06:00.302Z,98776.84
2022-09-28T03:11:11.114Z,98779.23
2022-09-28T03:16:19.981Z,98777.98
2022-09-28T03:21:27.469Z,98780.45
2022-09-28T03:26:33.323Z,98782.67
2022-09-28T03:31:39.437Z,98782.27
2022-09-28T03:36:45.202Z,98783.84
2022-09-28T03:41:51.251Z,98784.35
2022-09-28T03:46:57.232Z,98785.27
2022-09-28T03:52:03.326Z,98779.86
2022-09-28T03:57:09.240Z,98772.42
2022-09-28T04:02:15.422Z,98774.41
2022-09-28T04:07:21.847Z,98777.36
2022-09-28T04:12:27.852Z,98774.13
2022-09-28T04:17:39.167Z,98775.98
2022-09-28T04:22:50.365Z,98771.71
2022-09-28T04:28:14.942Z,98773.88
2022-09-28T04:33:20.873Z,98778.11
2022-09-28T04:38:48.387Z,98783.09
2022-09-28T04:43:53.429Z,98782.55
2022-09-28T04:48:59.704Z,98774.43
2022-09-28T04:54:23.168Z,98775.21
2022-09-28T04:59:29.167Z,98774.06
2022-09-28T05:04:35.700Z,98776.91
2022-09-28T05:09:51.281Z,98773.48
2022-09-28T05:14:57.209Z,98776.70
2022-09-28T05:20:03.918Z,98778.38
2022-09-28T05:25:11.228Z,98778.02
2022-09-28T05:30:32.339Z,98783.40
2022-09-28T05:36:01.044Z,98793.60
2022-09-28T05:41:08.798Z,98792.54
2022-09-28T05:46:14.824Z,98790.81
2022-09-28T05:51:21.170Z,98792.41
2022-09-28T05:56:29.593Z,98801.64
2022-09-28T06:01:35.562Z,98810.44
2022-09-28T06:06:43.109Z,98818.99
2022-09-28T06:11:49.155Z,98825.46
2022-09-28T06:17:11.413Z,98829.85
2022-09-28T06:22:18.497Z,98831.34
2022-09-28T06:27:32.184Z,98825.58
2022-09-28T06:32:38.143Z,98823.20
2022-09-28T06:37:47.117Z,98828.70
2022-09-28T06:43:00.355Z,98834.27
2022-09-28T06:48:24.879Z,98835.98
2022-09-28T06:53:32.434Z,98836.54
2022-09-28T06:58:48.613Z,98839.89
2022-09-28T07:03:55.790Z,98843.96
2022-09-28T07:09:44.954Z,98849.58
2022-09-28T07:15:09.447Z,98855.76
2022-09-28T07:20:19.645Z,98857.41
2022-09-28T07:25:31.805Z,98859.59
2022-09-28T07:31:07.348Z,98854.05
2022-09-28T07:36:35.265Z,98849.38
2022-09-28T07:41:43.069Z,98851.48
2022-09-28T07:46:49.199Z,98853.77
2022-09-28T07:52:28.863Z,98854.48
2022-09-28T07:58:01.979Z,98851.30
2022-09-28T08:03:38.147Z,98854.52
2022-09-28T08:08:45.043Z,98862.60
2022-09-28T08:13:55.462Z,98872.47
2022-09-28T08:19:21.120Z,98876.77
2022-09-28T08:24:31.122Z,98881.01
2022-09-28T08:29:37.755Z,98881.12
2022-09-28T08:35:13.254Z,98886.59
2022-09-28T08:40:48.961Z,98887.98
2022-09-28T08:46:14.262Z,98890.60
2022-09-28T08:51:45.661Z,98892.89
2022-09-28T08:57:05.650Z,98889.13
2022-09-28T09:02:18.219Z,98888.30
2022-09-28T09:07:57.126Z,98893.77
2022-09-28T09:13:16.787Z,98891.77
2022-09-28T09:18:26.400Z,98897.11
2022-09-28T09:23:56.971Z,98897.92
2022-09-28T09:29:17.369Z,98901.41
2022-09-28T09:34:58.066Z,98904.88
2022-09-28T09:40:34.382Z,98904.71
2022-09-28T09:46:11.529Z,98906.67
2022-09-28T09:51:47.620Z,98915.01
2022-09-28T09:57:01.603Z,98916.97
2022-09-28T10:02:30.120Z,98909.89
2022-09-28T10:07:56.191Z,98908.75
2022-09-28T10:13:03.783Z,98912.70
2022-09-28T10:18:14.133Z,98916.57
2022-09-28T10:23:39.793Z,98921.35
2022-09-28T10:28:52.007Z,98922.08
2022-09-28T10:33:59.385Z,98921.31
2022-09-28T10:39:07.129Z,98924.42
2022-09-28T10:44:18.657Z,98925.67
2022-09-28T10:49:50.530Z,98926.80
2022-09-28T10:54:59.258Z,98926.88
2022-09-28T11:00:28.933Z,98925.22
2022-09-28T11:06:00.733Z,98918.61
2022-09-28T11:11:10.680Z,98920.61
2022-09-28T11:16:23.785Z,98923.48
2022-09-28T11:21:40.209Z,98928.66
2022-09-28T11:26:49.533Z,98931.08
2022-09-28T11:32:04.152Z,98930.42
2022-09-28T11:37:31.295Z,98922.29
2022-09-28T11:42:48.557Z,98916.73
2022-09-28T11:47:57.768Z,98920.41
2022-09-28T11:53:14.229Z,98920.73
2022-09-28T11:58:30.746Z,98920.60
2022-09-28T12:03:43.242Z,98921.02
2022-09-28T12:08:56.296Z,98932.25
2022-09-28T12:14:29.598Z,98939.16
2022-09-28T12:19:42.458Z,98940.46
2022-09-28T12:24:55.031Z,98939.02
2022-09-28T12:30:05.760Z,98936.18
2022-09-28T12:35:18.701Z,98930.98
2022-09-28T12:40:42.347Z,98930.35
2022-09-28T12:46:18.222Z,98931.84
2022-09-28T12:51:39.848Z,98931.81
2022-09-28T12:56:55.682Z,98930.90
2022-09-28T13:02:30.063Z,98931.91
2022-09-28T13:07:45.639Z,98937.84
2022-09-28T13:13:12.847Z,98935.77
2022-09-28T13:18:29.171Z,98933.13
2022-09-28T13:23:41.511Z,98935.09
2022-09-28T13:28:50.340Z,98937.63
2022-09-28T13:33:59.746Z,98949.27
2022-09-28T13:39:29.166Z,98942.04
2022-09-28T13:44:59.766Z,98933.98
2022-09-28T13:50:20.674Z,98928.98
2022-09-28T13:55:37.730Z,98924.73
2022-09-28T14:00:51.313Z,98924.84
2022-09-28T14:06:20.907Z,98922.61
2022-09-28T14:11:53.381Z,98922.87
2022-09-28T14:17:52.210Z,98925.40
2022-09-28T14:23:37.786Z,98923.83
2022-09-28T14:28:58.732Z,98915.93
2022-09-28T14:34:03.531Z,98918.02
2022-09-28T14:39:39.847Z,98920.85
2022-09-28T14:45:33.782Z,98916.29
2022-09-28T14:50:40.438Z,98912.89
2022-09-28T14:55:54.086Z,98920.04
2022-09-28T15:01:07.454Z,98924.38
2022-09-28T15:06:19.727Z,98920.56
2022-09-28T15:11:27.448Z,98928.33
2022-09-28T15:16:33.490Z,98932.23
2022-09-28T15:21:42.520Z,98934.98
2022-09-28T15:26:50.440Z,98933.08
2022-09-28T15:31:56.245Z,98933.88
2022-09-28T15:37:09.015Z,98941.09
2022-09-28T15:42:16.572Z,98935.31
2022-09-28T15:47:27.997Z,98925.10
2022-09-28T15:52:39.808Z,98918.11
2022-09-28T15:57:47.488Z,98926.55
2022-09-28T16:03:02.007Z,98922.95
2022-09-28T16:08:21.305Z,98917.55
2022-09-28T16:13:27.356Z,98925.36
2022-09-28T16:18:47.476Z,98938.04
2022-09-28T16:23:56.089Z,98935.59
2022-09-28T16:29:06.047Z,98932.73
2022-09-28T16:34:20.018Z,98924.34
2022-09-28T16:39:25.844Z,98914.61
2022-09-28T16:44:32.964Z,98913.23
2022-09-28T16:49:40.630Z,98916.17
2022-09-28T16:55:22.713Z,98913.31
2022-09-28T17:00:32.499Z,98910.42
2022-09-28T17:05:40.164Z,98910.39
2022-09-28T17:11:12.914Z,98928.27
2022-09-28T17:21:47.090Z,98904.36
2022-09-28T17:26:53.442Z,98911.77
2022-09-28T17:31:59.331Z,98904.98
2022-09-28T17:37:05.435Z,98902.69
2022-09-28T17:42:11.505Z,98896.65
2022-09-28T17:47:17.630Z,98897.77
2022-09-28T17:52:23.437Z,98903.80
2022-09-28T17:57:29.299Z,98908.27
2022-09-28T18:02:35.194Z,98919.70
2022-09-28T18:07:45.367Z,98933.58
2022-09-28T18:12:53.111Z,98936.82
2022-09-28T18:17:58.880Z,98941.57
2022-09-28T18:23:05.074Z,98946.11
2022-09-28T18:28:11.284Z,98958.14
2022-09-28T18:33:17.052Z,98968.80
2022-09-28T18:38:22.840Z,98982.35
2022-09-28T18:43:31.168Z,98989.27
2022-09-28T18:48:40.512Z,98997.77
2022-09-28T18:53:46.714Z,98999.64
2022-09-28T18:58:52.791Z,99010.36
2022-09-28T19:04:00.359Z,99019.10
2022-09-28T19:09:06.567Z,99028.70
2022-09-28T19:14:15.071Z,99034.84
2022-09-28T19:19:21.759Z,99035.62
2022-09-28T19:24:27.778Z,99032.46
2022-09-28T19:29:33.561Z,99030.20
2022-09-28T19:34:39.507Z,99012.88
2022-09-28T19:39:45.439Z,99002.35
2022-09-28T19:44:51.276Z,98989.36
2022-09-28T19:49:57.023Z,98972.94
2022-09-28T19:55:03.036Z,98971.89
2022-09-28T20:00:11.560Z,98972.56
2022-09-28T20:05:18.749Z,98968.42
2022-09-28T20:10:24.710Z,98962.27
2022-09-28T20:15:31.344Z,98969.47
2022-09-28T20:20:37.456Z,98970.20
2022-09-28T20:25:43.210Z,98970.53
2022-09-28T20:30:49.038Z,98971.84
2022-09-28T20:35:55.980Z,98973.74
2022-09-28T20:41:02.885Z,98973.88
2022-09-28T20:46:11.033Z,98974.15
2022-09-28T20:51:18.790Z,98971.19
2022-09-28T20:56:26.522Z,98963.11
2022-09-28T21:01:32.491Z,98956.41
2022-09-28T21:06:39.945Z,98960.23
2022-09-28T21:11:46.390Z,98964.57
2022-09-28T21:16:52.493Z,98966.23
2022-09-28T21:21:58.328Z,98968.96
2022-09-28T21:27:04.290Z,98970.37
2022-09-28T21:32:10.219Z,98975.63
2022-09-28T21:37:15.993Z,98974.98
2022-09-28T21:42:24.654Z,98972.23
2022-09-28T21:47:30.512Z,98966.60
2022-09-28T21:52:36.322Z,98968.15
2022-09-28T21:57:42.687Z,98977.11
2022-09-28T22:02:48.592Z,98982.40
2022-09-28T22:07:55.406Z,98985.60
2022-09-28T22:13:01.603Z,98988.95
2022-09-28T22:18:07.328Z,98988.66
2022-09-28T22:23:13.215Z,98992.47
2022-09-28T22:28:19.017Z,99004.13
2022-09-28T22:33:25.332Z,99013.81
2022-09-28T22:38:33.011Z,99010.34
2022-09-28T22:43:39.056Z,99006.16
2022-09-28T22:48:48.509Z,99005.87
2022-09-28T22:53:54.307Z,99009.94
2022-09-28T22:59:00.027Z,99004.80
2022-09-28T23:04:06.120Z,99008.96
2022-09-28T23:09:12.196Z,99014.46
2022-09-28T23:14:17.934Z,99016.91
2022-09-28T23:19:23.722Z,99017.48
2022-09-28T23:24:29.692Z,99017.96
2022-09-28T23:29:35.538Z,99027.06
2022-09-28T23:34:41.250Z,99034.48
2022-09-28T23:39:47.122Z,99026.12
2022-09-28T23:44:52.778Z,99026.93
2022-09-28T23:49:58.716Z,99032.35
2022-09-28T23:55:05.915Z,99044.27
